createdAt,value
2019-05-09T00:00:09.435Z,923.7
2019-05-09T00:01:09.335Z,923.9
2019-05-09T00:02:09.747Z,923.9
2019-05-09T00:03:10.880Z,923.9
2019-05-09T00:04:13.869Z,924
2019-05-09T00:05:13.757Z,923.9
2019-05-09T00:06:13.689Z,924
2019-05-09T00:07:14.084Z,924
2019-05-09T00:08:15.515Z,923.9
2019-05-09T00:09:16.657Z,923.9
2019-05-09T00:10:17.817Z,923.9
2019-05-09T00:11:20.202Z,923.9
2019-05-09T00:12:20.607Z,923.9
2019-05-09T00:13:24.899Z,923.9
2019-05-09T00:14:23.828Z,923.9
2019-05-09T00:15:24.170Z,923.9
2019-05-09T00:16:24.660Z,923.7
2019-05-09T00:17:28.586Z,923.9
2019-05-09T00:18:28.722Z,923.9
2019-05-09T00:19:29.109Z,923.9
2019-05-09T00:20:29.267Z,923.9
2019-05-09T00:21:33.033Z,923.9
2019-05-09T00:22:33.234Z,923.8
2019-05-09T00:23:33.238Z,923.7
2019-05-09T00:24:33.677Z,923.9
2019-05-09T00:25:34.553Z,923.8
2019-05-09T00:26:35.971Z,923.7
2019-05-09T00:27:38.609Z,923.7
2019-05-09T00:28:41.425Z,923.7
2019-05-09T00:29:38.518Z,923.7
2019-05-09T00:30:39.682Z,923.6
2019-05-09T00:31:41.109Z,923.7
2019-05-09T00:32:43.150Z,923.6
2019-05-09T00:33:45.066Z,923.6
2019-05-09T00:34:45.134Z,923.6
2019-05-09T00:35:45.968Z,923.7
2019-05-09T00:36:49.187Z,923.7
2019-05-09T00:37:48.314Z,923.7
2019-05-09T00:38:49.437Z,923.7
2019-05-09T00:39:50.576Z,923.7
2019-05-09T00:40:57.998Z,923.8
2019-05-09T00:41:53.853Z,923.8
2019-05-09T00:42:54.338Z,923.7
2019-05-09T00:43:55.769Z,923.9
2019-05-09T00:44:58.654Z,923.5
2019-05-09T00:45:59.599Z,923.9
2019-05-09T00:46:58.717Z,923.9
2019-05-09T00:47:59.849Z,923.9
2019-05-09T00:49:00.994Z,923.9
2019-05-09T00:50:02.132Z,923.9
2019-05-09T00:51:03.585Z,924
2019-05-09T00:52:05.041Z,923.8
2019-05-09T00:53:08.453Z,923.8
2019-05-09T00:54:09.584Z,923.7
2019-05-09T00:55:09.382Z,923.4
2019-05-09T00:56:10.213Z,923.9
2019-05-09T00:57:13.557Z,923.8
2019-05-09T00:58:13.616Z,923.9
2019-05-09T00:59:14.079Z,923.7
2019-05-09T01:00:15.211Z,923.7
2019-05-09T01:01:16.370Z,923.7
2019-05-09T01:02:18.632Z,923.7
2019-05-09T01:03:19.744Z,923.7
2019-05-09T01:04:20.149Z,923.7
2019-05-09T01:05:21.287Z,923.6
2019-05-09T01:06:23.842Z,923.5
2019-05-09T01:07:23.468Z,923.3
2019-05-09T01:08:24.882Z,923.5
2019-05-09T01:09:26.301Z,923.5
2019-05-09T01:10:29.165Z,923.6
2019-05-09T01:11:29.843Z,923.4
2019-05-09T01:12:29.250Z,923.6
2019-05-09T01:13:30.663Z,923.6
2019-05-09T01:14:33.683Z,923.6
2019-05-09T01:15:33.588Z,923.7
2019-05-09T01:16:34.423Z,923.6
2019-05-09T01:17:35.832Z,923.7
2019-05-09T01:18:38.553Z,923.6
2019-05-09T01:19:37.670Z,923.5
2019-05-09T01:20:38.809Z,923.5
2019-05-09T01:21:39.973Z,923.5
2019-05-09T01:22:43.461Z,923.4
2019-05-09T01:23:43.563Z,923.4
2019-05-09T01:24:44.269Z,923.6
2019-05-09T01:25:43.728Z,923.5
2019-05-09T01:26:44.540Z,923.5
2019-05-09T01:27:48.385Z,923.3
2019-05-09T01:28:46.779Z,923.5
2019-05-09T01:29:49.310Z,923.4
2019-05-09T01:30:49.440Z,923.1
2019-05-09T01:31:50.598Z,923.1
2019-05-09T01:32:53.923Z,921.9
2019-05-09T01:33:53.444Z,923
2019-05-09T01:34:54.888Z,922.9
2019-05-09T01:35:56.021Z,923
2019-05-09T01:36:56.557Z,922.8
2019-05-09T01:37:59.325Z,922.7
2019-05-09T01:38:59.399Z,922.8
2019-05-09T01:39:59.811Z,922.9
2019-05-09T01:41:01.231Z,922.9
2019-05-09T01:42:03.249Z,922.9
2019-05-09T01:43:04.451Z,922.9
2019-05-09T01:44:04.985Z,922.8
2019-05-09T01:45:06.128Z,921.6
2019-05-09T01:46:07.258Z,922.9
2019-05-09T01:47:07.802Z,920.8
2019-05-09T01:48:09.217Z,922.8
2019-05-09T01:49:10.347Z,920.8
2019-05-09T01:50:13.776Z,922.7
2019-05-09T01:51:13.855Z,922.8
2019-05-09T01:52:13.818Z,922.8
2019-05-09T01:53:13.969Z,922.8
2019-05-09T01:54:15.107Z,922.9
2019-05-09T01:55:16.239Z,923
2019-05-09T01:56:17.374Z,922.9
2019-05-09T01:57:17.919Z,922.9
2019-05-09T01:58:19.345Z,923
2019-05-09T01:59:20.483Z,923
2019-05-09T02:00:23.684Z,923
2019-05-09T02:01:24.013Z,923.1
2019-05-09T02:02:24.606Z,923.1
2019-05-09T02:03:26.028Z,923.1
2019-05-09T02:04:27.159Z,923.1
2019-05-09T02:05:28.291Z,923.1
2019-05-09T02:06:29.428Z,923.1
2019-05-09T02:07:30.285Z,923
2019-05-09T02:08:34.090Z,923
2019-05-09T02:09:34.170Z,923
2019-05-09T02:10:34.675Z,923
2019-05-09T02:11:50.612Z,923.1
2019-05-09T02:12:35.920Z,923
2019-05-09T02:13:39.398Z,923.1
2019-05-09T02:14:38.512Z,923.2
2019-05-09T02:15:39.651Z,923.2
2019-05-09T02:16:43.025Z,923.2
2019-05-09T02:17:55.617Z,923.2
2019-05-09T02:18:44.173Z,923
2019-05-09T02:19:44.267Z,923
2019-05-09T02:20:45.404Z,923.2
2019-05-09T02:21:46.544Z,923.2
2019-05-09T02:22:47.700Z,923.2
2019-05-09T02:23:49.124Z,923.2
2019-05-09T02:24:50.250Z,923.2
2019-05-09T02:25:53.225Z,923.3
2019-05-09T02:26:53.298Z,923.2
2019-05-09T02:27:55.006Z,923.2
2019-05-09T02:28:54.598Z,923.2
2019-05-09T02:29:56.010Z,923.1
2019-05-09T02:31:00.368Z,923.1
2019-05-09T02:32:00.106Z,923.1
2019-05-09T02:32:59.252Z,923.2
2019-05-09T02:34:00.666Z,923.2
2019-05-09T02:35:04.793Z,923.2
2019-05-09T02:36:09.707Z,923.2
2019-05-09T02:37:04.477Z,923.2
2019-05-09T02:38:04.217Z,923.2
2019-05-09T02:39:08.804Z,923.2
2019-05-09T02:40:09.047Z,923.2
2019-05-09T02:41:08.500Z,923.2
2019-05-09T02:42:19.869Z,922.9
2019-05-09T02:43:09.870Z,923.2
2019-05-09T02:44:10.417Z,922.9
2019-05-09T02:45:13.780Z,923.2
2019-05-09T02:46:18.435Z,923.3
2019-05-09T02:47:14.663Z,923.3
2019-05-09T02:48:14.095Z,923.3
2019-05-09T02:49:15.533Z,923.4
2019-05-09T02:50:19.428Z,923.2
2019-05-09T02:51:18.622Z,923.3
2019-05-09T02:52:19.870Z,923.3
2019-05-09T02:53:20.384Z,923.2
2019-05-09T02:54:24.571Z,923.3
2019-05-09T02:55:23.980Z,923.4
2019-05-09T02:56:24.603Z,923.3
2019-05-09T02:57:25.014Z,923.2
2019-05-09T02:58:28.159Z,923.3
2019-05-09T02:59:29.635Z,923.2
2019-05-09T03:00:28.944Z,923.4
2019-05-09T03:01:29.612Z,923.4
2019-05-09T03:02:34.332Z,923.3
2019-05-09T03:03:34.501Z,923.3
2019-05-09T03:04:33.879Z,923.3
2019-05-09T03:05:38.013Z,923.3
2019-05-09T03:06:38.626Z,923.3
2019-05-09T03:07:39.373Z,923.3
2019-05-09T03:08:38.459Z,923.3
2019-05-09T03:09:38.922Z,923.2
2019-05-09T03:10:39.467Z,923.2
2019-05-09T03:11:44.426Z,923.2
2019-05-09T03:12:45.349Z,923.2
2019-05-09T03:13:42.485Z,923.1
2019-05-09T03:14:44.067Z,923.2
2019-05-09T03:15:44.188Z,923
2019-05-09T03:16:48.714Z,923
2019-05-09T03:17:49.305Z,923.2
2019-05-09T03:18:49.354Z,923.2
2019-05-09T03:19:48.952Z,923.3
2019-05-09T03:20:50.108Z,923.1
2019-05-09T03:21:54.692Z,923.2
2019-05-09T03:22:54.082Z,923
2019-05-09T03:23:54.433Z,923.2
2019-05-09T03:24:54.832Z,923.2
2019-05-09T03:25:58.756Z,923.1
2019-05-09T03:26:59.478Z,923.1
2019-05-09T03:27:58.669Z,923.2
2019-05-09T03:28:59.195Z,921.1
2019-05-09T03:29:59.763Z,923.1
2019-05-09T03:31:00.895Z,923.1
2019-05-09T03:32:02.028Z,923.1
2019-05-09T03:33:03.167Z,921.5
2019-05-09T03:34:04.348Z,923
2019-05-09T03:35:05.484Z,923
2019-05-09T03:36:07.769Z,923
2019-05-09T03:37:08.598Z,923
2019-05-09T03:38:09.061Z,923
2019-05-09T03:39:09.885Z,922.8
2019-05-09T03:40:13.280Z,922.9
2019-05-09T03:41:13.967Z,922.8
2019-05-09T03:42:13.378Z,923
2019-05-09T03:43:14.513Z,923
2019-05-09T03:44:17.624Z,923
2019-05-09T03:45:18.184Z,922.9
2019-05-09T03:46:18.434Z,923
2019-05-09T03:47:19.549Z,922.9
2019-05-09T03:48:20.678Z,923
2019-05-09T03:49:23.404Z,922.9
2019-05-09T03:50:23.284Z,922.8
2019-05-09T03:51:23.846Z,922.9
2019-05-09T03:52:24.258Z,922.8
2019-05-09T03:53:27.549Z,922.8
2019-05-09T03:54:28.248Z,922.6
2019-05-09T03:55:28.214Z,922.7
2019-05-09T03:56:28.670Z,922.7
2019-05-09T03:57:30.089Z,922.8
2019-05-09T03:58:33.485Z,922.8
2019-05-09T03:59:33.290Z,922.8
2019-05-09T04:00:33.809Z,922.7
2019-05-09T04:01:35.241Z,922.7
2019-05-09T04:02:38.305Z,922.8
2019-05-09T04:03:37.934Z,922.6
2019-05-09T04:04:38.476Z,922.7
2019-05-09T04:05:39.884Z,922.7
2019-05-09T04:06:44.668Z,922.7
2019-05-09T04:07:43.837Z,922.6
2019-05-09T04:08:42.958Z,922.8
2019-05-09T04:09:45.221Z,922.8
2019-05-09T04:10:44.621Z,922.8
2019-05-09T04:11:45.753Z,922.8
2019-05-09T04:13:02.388Z,922.8
2019-05-09T04:13:47.732Z,922.7
2019-05-09T04:14:48.880Z,922.8
2019-05-09T04:15:50.297Z,922.8
2019-05-09T04:16:53.626Z,922.6
2019-05-09T04:17:53.027Z,921.4
2019-05-09T04:18:54.444Z,922.8
2019-05-09T04:19:54.975Z,922.9
2019-05-09T04:20:57.305Z,922.9
2019-05-09T04:21:57.827Z,922.8
2019-05-09T04:22:59.506Z,922.9
2019-05-09T04:24:00.004Z,922.8
2019-05-09T04:25:03.091Z,922.7
2019-05-09T04:26:02.217Z,922.9
2019-05-09T04:27:03.621Z,922.7
2019-05-09T04:28:07.266Z,922.9
2019-05-09T04:29:07.770Z,922.7
2019-05-09T04:30:09.348Z,922.9
2019-05-09T04:31:07.615Z,922.9
2019-05-09T04:32:09.040Z,923
2019-05-09T04:33:10.180Z,923
2019-05-09T04:34:11.313Z,923
2019-05-09T04:35:12.482Z,923
2019-05-09T04:36:13.893Z,923
2019-05-09T04:37:15.024Z,923
2019-05-09T04:38:17.866Z,923
2019-05-09T04:39:23.285Z,922.9
2019-05-09T04:40:17.868Z,922.9
2019-05-09T04:41:29.249Z,923
2019-05-09T04:42:19.566Z,923
2019-05-09T04:43:27.151Z,923
2019-05-09T04:44:28.367Z,923.1
2019-05-09T04:45:22.579Z,923
2019-05-09T04:46:29.763Z,922.9
2019-05-09T04:47:25.122Z,923
2019-05-09T04:48:27.691Z,923
2019-05-09T04:49:29.475Z,922.8
2019-05-09T04:50:30.379Z,923
2019-05-09T04:51:29.778Z,923
2019-05-09T04:52:30.911Z,923
2019-05-09T04:53:32.045Z,923
2019-05-09T04:54:33.520Z,923.1
2019-05-09T04:55:34.964Z,923
2019-05-09T04:56:38.131Z,923
2019-05-09T04:57:38.223Z,923.1
2019-05-09T04:58:38.423Z,923.1
2019-05-09T04:59:39.559Z,923
2019-05-09T05:00:40.405Z,923
2019-05-09T05:01:41.514Z,923.1
2019-05-09T05:02:42.644Z,923.2
2019-05-09T05:03:43.783Z,923.2
2019-05-09T05:04:44.911Z,923.2
2019-05-09T05:05:48.154Z,923.3
2019-05-09T05:06:47.864Z,922.2
2019-05-09T05:07:48.317Z,923.3
2019-05-09T05:08:49.446Z,923.3
2019-05-09T05:09:50.582Z,923.2
2019-05-09T05:10:51.127Z,923.3
2019-05-09T05:11:52.262Z,923.3
2019-05-09T05:12:53.880Z,923.4
2019-05-09T05:13:53.999Z,923.1
2019-05-09T05:14:55.137Z,923.1
2019-05-09T05:15:57.795Z,923.2
2019-05-09T05:17:08.328Z,923.3
2019-05-09T05:17:58.469Z,923.3
2019-05-09T05:18:59.880Z,923.3
2019-05-09T05:20:03.391Z,923.3
2019-05-09T05:21:03.061Z,923.1
2019-05-09T05:22:03.758Z,923.4
2019-05-09T05:23:04.168Z,923.3
2019-05-09T05:24:05.585Z,923.3
2019-05-09T05:25:09.161Z,923.3
2019-05-09T05:26:09.338Z,923.3
2019-05-09T05:27:08.545Z,923.2
2019-05-09T05:28:09.966Z,923.2
2019-05-09T05:29:13.854Z,923.3
2019-05-09T05:30:13.049Z,923.2
2019-05-09T05:31:12.585Z,923.3
2019-05-09T05:32:14.006Z,923.1
2019-05-09T05:33:15.141Z,923.2
2019-05-09T05:34:18.225Z,923.2
2019-05-09T05:35:17.935Z,923.2
2019-05-09T05:36:18.418Z,923.2
2019-05-09T05:37:19.831Z,923.2
2019-05-09T05:38:23.050Z,923.2
2019-05-09T05:39:23.283Z,923.1
2019-05-09T05:40:23.685Z,921.3
2019-05-09T05:41:24.137Z,923.2
2019-05-09T05:42:28.169Z,923
2019-05-09T05:43:38.476Z,923.2
2019-05-09T05:44:28.272Z,923.2
2019-05-09T05:45:28.455Z,923.2
2019-05-09T05:46:28.952Z,923
2019-05-09T05:47:30.085Z,923.2
2019-05-09T05:48:31.228Z,923.2
2019-05-09T05:49:32.362Z,923.2
2019-05-09T05:50:33.507Z,923.2
2019-05-09T05:51:34.345Z,923.2
2019-05-09T05:52:37.492Z,923.2
2019-05-09T05:53:38.018Z,923.2
2019-05-09T05:54:37.816Z,923.2
2019-05-09T05:55:38.376Z,923.2
2019-05-09T05:56:39.826Z,923.2
2019-05-09T05:57:43.974Z,923.1
2019-05-09T05:58:44.071Z,923.1
2019-05-09T05:59:43.187Z,923.2
2019-05-09T06:00:44.323Z,923.2
2019-05-09T06:01:47.445Z,923.1
2019-05-09T06:02:47.833Z,923.2
2019-05-09T06:03:48.075Z,923.2
2019-05-09T06:04:48.774Z,923.3
2019-05-09T06:05:51.571Z,923.3
2019-05-09T06:06:50.142Z,923.3
2019-05-09T06:07:53.795Z,923.3
2019-05-09T06:08:53.968Z,923.2
2019-05-09T06:09:53.790Z,923.4
2019-05-09T06:10:54.229Z,923.3
2019-05-09T06:11:57.067Z,923.3
2019-05-09T06:12:57.496Z,923.3
2019-05-09T06:14:04.029Z,923.3
2019-05-09T06:14:58.158Z,923.3
2019-05-09T06:15:58.832Z,923.3
2019-05-09T06:16:59.254Z,923.2
2019-05-09T06:18:03.398Z,923.3
2019-05-09T06:19:04.059Z,923.3
2019-05-09T06:20:04.400Z,923.4
2019-05-09T06:21:03.525Z,923.3
2019-05-09T06:22:04.796Z,923.4
2019-05-09T06:23:08.359Z,923.3
2019-05-09T06:24:08.542Z,923.4
2019-05-09T06:25:09.527Z,923.3
2019-05-09T06:26:10.375Z,923.4
2019-05-09T06:27:18.005Z,923.4
2019-05-09T06:28:11.246Z,923.4
2019-05-09T06:29:12.389Z,923.4
2019-05-09T06:30:13.522Z,923.3
2019-05-09T06:31:14.656Z,923.4
2019-05-09T06:32:15.495Z,923.4
2019-05-09T06:33:18.003Z,923.4
2019-05-09T06:34:18.666Z,923.4
2019-05-09T06:35:18.300Z,923.3
2019-05-09T06:36:19.727Z,923.3
2019-05-09T06:37:23.802Z,923.2
2019-05-09T06:38:24.295Z,923.2
2019-05-09T06:39:23.670Z,923.1
2019-05-09T06:40:28.661Z,923.2
2019-05-09T06:41:28.509Z,923.2
2019-05-09T06:42:28.576Z,923.3
2019-05-09T06:43:28.976Z,923.2
2019-05-09T06:44:29.194Z,923.2
2019-05-09T06:45:30.329Z,923.2
2019-05-09T06:46:31.458Z,923.2
2019-05-09T06:47:32.628Z,923.2
2019-05-09T06:48:34.037Z,923.1
2019-05-09T06:49:37.434Z,923.1
2019-05-09T06:50:37.816Z,923.1
2019-05-09T06:51:38.706Z,923.1
2019-05-09T06:52:37.694Z,923.1
2019-05-09T06:53:39.109Z,923.2
2019-05-09T06:54:41.573Z,923.1
2019-05-09T06:55:43.879Z,923.1
2019-05-09T06:56:41.981Z,923.1
2019-05-09T06:57:43.342Z,923.1
2019-05-09T06:58:44.776Z,923
2019-05-09T06:59:46.206Z,923.1
2019-05-09T07:00:48.902Z,923.1
2019-05-09T07:01:48.367Z,923.1
2019-05-09T07:02:48.918Z,923
2019-05-09T07:03:50.332Z,923.1
2019-05-09T07:04:51.473Z,923.1
2019-05-09T07:05:52.604Z,923
2019-05-09T07:06:53.746Z,923
2019-05-09T07:07:57.017Z,923.1
2019-05-09T07:08:58.230Z,923.1
2019-05-09T07:09:58.539Z,923.1
2019-05-09T07:10:58.478Z,922.9
2019-05-09T07:11:58.937Z,923
2019-05-09T07:12:59.758Z,922.9
2019-05-09T07:14:03.250Z,923.1
2019-05-09T07:15:02.366Z,923
2019-05-09T07:16:03.989Z,923.1
2019-05-09T07:17:04.399Z,923
2019-05-09T07:18:07.865Z,923
2019-05-09T07:19:07.955Z,923
2019-05-09T07:20:08.361Z,923
2019-05-09T07:21:08.964Z,923
2019-05-09T07:22:10.372Z,923
2019-05-09T07:23:14.204Z,923
2019-05-09T07:24:13.375Z,923
2019-05-09T07:25:13.498Z,923
2019-05-09T07:26:14.918Z,923.1
2019-05-09T07:27:17.917Z,923
2019-05-09T07:28:17.954Z,923
2019-05-09T07:29:18.480Z,922.9
2019-05-09T07:30:19.618Z,922.9
2019-05-09T07:31:20.755Z,923.1
2019-05-09T07:32:21.887Z,921.6
2019-05-09T07:33:22.430Z,922.6
2019-05-09T07:34:23.907Z,923
2019-05-09T07:35:25.050Z,923
2019-05-09T07:36:27.781Z,923
2019-05-09T07:37:27.553Z,922.9
2019-05-09T07:38:28.009Z,921.7
2019-05-09T07:39:29.422Z,923
2019-05-09T07:40:38.444Z,922.8
2019-05-09T07:41:33.640Z,923
2019-05-09T07:42:32.892Z,923
2019-05-09T07:43:34.121Z,923
2019-05-09T07:44:59.049Z,922.9
2019-05-09T07:45:38.357Z,922.9
2019-05-09T07:46:38.402Z,923
2019-05-09T07:47:38.934Z,923
2019-05-09T07:48:40.365Z,922.9
2019-05-09T07:49:43.149Z,923
2019-05-09T07:50:44.378Z,920
2019-05-09T07:51:43.775Z,923
2019-05-09T07:52:44.921Z,923
2019-05-09T07:53:48.099Z,922.8
2019-05-09T07:54:48.300Z,922.9
2019-05-09T07:55:47.505Z,922.9
2019-05-09T07:56:48.697Z,922.9
2019-05-09T07:57:54.869Z,923
2019-05-09T07:58:53.122Z,922.9
2019-05-09T07:59:53.281Z,922.8
2019-05-09T08:00:52.395Z,922.8
2019-05-09T08:01:53.533Z,922.9
2019-05-09T08:02:54.674Z,922.9
2019-05-09T08:03:58.047Z,922.8
2019-05-09T08:04:57.877Z,922.9
2019-05-09T08:05:58.046Z,923
2019-05-09T08:06:58.539Z,923
2019-05-09T08:07:59.673Z,922.9
2019-05-09T08:09:00.840Z,922.9
2019-05-09T08:10:03.407Z,922.7
2019-05-09T08:11:02.524Z,922.9
2019-05-09T08:12:03.661Z,922.9
2019-05-09T08:13:07.866Z,922.9
2019-05-09T08:14:08.317Z,922.9
2019-05-09T08:15:27.725Z,922.8
2019-05-09T08:16:12.333Z,922.9
2019-05-09T08:17:08.775Z,922.9
2019-05-09T08:18:10.192Z,922.8
2019-05-09T08:19:11.344Z,922.8
2019-05-09T08:20:13.871Z,922.8
2019-05-09T08:21:13.950Z,922.8
2019-05-09T08:22:14.097Z,922.9
2019-05-09T08:23:15.214Z,922.8
2019-05-09T08:24:18.079Z,921.6
2019-05-09T08:25:18.297Z,922.8
2019-05-09T08:26:18.820Z,922.8
2019-05-09T08:27:18.332Z,922.8
2019-05-09T08:28:20.096Z,922.8
2019-05-09T08:29:27.967Z,921.1
2019-05-09T08:30:23.411Z,922.7
2019-05-09T08:31:22.530Z,922.9
2019-05-09T08:32:23.677Z,922.9
2019-05-09T08:33:24.802Z,922.8
2019-05-09T08:34:25.354Z,922.8
2019-05-09T08:35:27.910Z,922.9
2019-05-09T08:36:28.131Z,922.8
2019-05-09T08:37:28.682Z,922.7
2019-05-09T08:38:30.088Z,922.9
2019-05-09T08:39:33.188Z,922.8
2019-05-09T08:40:33.954Z,922.9
2019-05-09T08:41:33.068Z,922.8
2019-05-09T08:42:34.749Z,922.7
2019-05-09T08:43:37.526Z,922.7
2019-05-09T08:44:37.896Z,922.7
2019-05-09T08:45:38.212Z,922.7
2019-05-09T08:46:37.886Z,922.7
2019-05-09T08:47:39.295Z,922.6
2019-05-09T08:48:43.296Z,922.6
2019-05-09T08:49:41.427Z,922.7
2019-05-09T08:50:44.487Z,922.7
2019-05-09T08:52:21.292Z,922.8
2019-05-09T08:52:44.089Z,922.7
2019-05-09T08:53:47.901Z,922.7
2019-05-09T08:54:45.580Z,922.7
2019-05-09T08:55:47.522Z,922.7
2019-05-09T08:56:47.981Z,922.6
2019-05-09T08:57:49.403Z,922.5
2019-05-09T08:58:53.588Z,922.6
2019-05-09T08:59:58.636Z,922.7
2019-05-09T09:00:54.537Z,922.6
2019-05-09T09:02:23.806Z,922.7
2019-05-09T09:02:56.807Z,922.6
2019-05-09T09:03:57.544Z,922.6
2019-05-09T09:04:58.158Z,922.5
2019-05-09T09:05:57.952Z,922.6
2019-05-09T09:06:58.357Z,922.5
2019-05-09T09:07:59.773Z,922.6
2019-05-09T09:09:00.911Z,922.5
2019-05-09T09:10:02.059Z,922.6
2019-05-09T09:11:03.486Z,922.6
2019-05-09T09:12:21.038Z,922.5
2019-05-09T09:13:08.067Z,922.6
2019-05-09T09:14:07.805Z,922.5
2019-05-09T09:15:07.825Z,922.5
2019-05-09T09:16:15.579Z,922.5
2019-05-09T09:17:09.125Z,922.6
2019-05-09T09:18:10.511Z,922.1
2019-05-09T09:19:14.328Z,922.5
2019-05-09T09:20:12.506Z,922.4
2019-05-09T09:21:13.910Z,922.4
2019-05-09T09:22:15.045Z,922.5
2019-05-09T09:23:18.006Z,922.4
2019-05-09T09:24:17.784Z,922.5
2019-05-09T09:25:18.658Z,922.4
2019-05-09T09:26:19.752Z,922.5
2019-05-09T09:27:20.882Z,922.5
2019-05-09T09:28:22.013Z,922.5
2019-05-09T09:29:23.402Z,922.4
2019-05-09T09:30:30.622Z,922.4
2019-05-09T09:31:28.252Z,922.3
2019-05-09T09:32:28.011Z,922.4
2019-05-09T09:33:27.978Z,922.4
2019-05-09T09:34:29.999Z,922.4
2019-05-09T09:35:28.848Z,922.4
2019-05-09T09:36:29.981Z,922.3
2019-05-09T09:37:44.922Z,922.2
2019-05-09T09:38:33.481Z,922.2
2019-05-09T09:39:43.101Z,922.3
2019-05-09T09:40:34.305Z,922.3
2019-05-09T09:41:38.182Z,922.3
2019-05-09T09:42:39.598Z,922.1
2019-05-09T09:43:38.510Z,922.3
2019-05-09T09:44:39.235Z,922.2
2019-05-09T09:45:39.325Z,922.2
2019-05-09T09:46:42.813Z,922.2
2019-05-09T09:47:48.166Z,922.2
2019-05-09T09:48:44.364Z,922.3
2019-05-09T09:49:44.757Z,922.3
2019-05-09T09:50:50.774Z,922.3
2019-05-09T09:51:48.476Z,922.2
2019-05-09T09:52:49.071Z,922.2
2019-05-09T09:53:49.008Z,922.1
2019-05-09T09:54:49.498Z,922.2
2019-05-09T09:55:53.179Z,922.2
2019-05-09T09:56:53.251Z,922.2
2019-05-09T09:57:52.361Z,920.8
2019-05-09T09:58:53.496Z,922.3
2019-05-09T09:59:54.622Z,922.2
2019-05-09T10:00:58.142Z,922.2
2019-05-09T10:01:58.336Z,922.3
2019-05-09T10:02:58.656Z,920.6
2019-05-09T10:04:14.494Z,922
2019-05-09T10:04:59.879Z,922.2
2019-05-09T10:06:03.110Z,922.3
2019-05-09T10:07:03.746Z,922.2
2019-05-09T10:08:01.846Z,922.1
2019-05-09T10:09:03.445Z,922.2
2019-05-09T10:10:03.565Z,922.2
2019-05-09T10:11:07.755Z,922.2
2019-05-09T10:12:08.756Z,922.3
2019-05-09T10:13:10.729Z,922.3
2019-05-09T10:14:08.213Z,922.3
2019-05-09T10:15:09.618Z,922.2
2019-05-09T10:16:25.409Z,922.3
2019-05-09T10:17:10.733Z,922.2
2019-05-09T10:18:11.862Z,922.3
2019-05-09T10:19:12.982Z,920.6
2019-05-09T10:20:14.384Z,922.3
2019-05-09T10:21:15.791Z,922.2
2019-05-09T10:22:23.252Z,922.1
2019-05-09T10:23:20.744Z,921.9
2019-05-09T10:24:18.349Z,922.3
2019-05-09T10:25:19.744Z,922.2
2019-05-09T10:26:23.192Z,922.2
2019-05-09T10:27:23.907Z,922.3
2019-05-09T10:28:29.978Z,922.3
2019-05-09T10:29:23.460Z,922.3
2019-05-09T10:30:24.855Z,922.3
2019-05-09T10:31:28.207Z,922.3
2019-05-09T10:32:28.772Z,922.3
2019-05-09T10:33:28.171Z,922.3
2019-05-09T10:34:29.534Z,922.3
2019-05-09T10:35:33.240Z,922.3
2019-05-09T10:36:33.285Z,922.3
2019-05-09T10:37:32.666Z,922.1
2019-05-09T10:38:34.056Z,922.3
2019-05-09T10:39:37.843Z,921
2019-05-09T10:40:39.764Z,922.3
2019-05-09T10:41:37.702Z,922.1
2019-05-09T10:42:38.812Z,922.3
2019-05-09T10:43:39.935Z,922.3
2019-05-09T10:44:41.066Z,922.3
2019-05-09T10:45:48.386Z,922.4
2019-05-09T10:46:52.373Z,922.4
2019-05-09T10:47:43.869Z,922.5
2019-05-09T10:48:47.719Z,922.5
2019-05-09T10:49:48.596Z,922.5
2019-05-09T10:51:03.744Z,922.5
2019-05-09T10:51:48.565Z,922.5
2019-05-09T10:52:48.977Z,922.6
2019-05-09T10:53:50.368Z,922.7
2019-05-09T10:54:51.760Z,922.7
2019-05-09T10:55:53.497Z,922.6
2019-05-09T10:56:54.232Z,922.7
2019-05-09T10:57:54.407Z,922.6
2019-05-09T10:58:58.142Z,922.7
2019-05-09T10:59:57.935Z,922.8
2019-05-09T11:00:58.620Z,922.8
2019-05-09T11:01:58.295Z,922.8
2019-05-09T11:02:59.658Z,922.8
2019-05-09T11:04:04.064Z,922.8
2019-05-09T11:05:03.084Z,922.9
2019-05-09T11:06:03.466Z,922.8
2019-05-09T11:07:04.274Z,923
2019-05-09T11:08:07.786Z,923
2019-05-09T11:09:08.546Z,923
2019-05-09T11:10:23.623Z,923.1
2019-05-09T11:11:09.395Z,923.1
2019-05-09T11:12:08.620Z,923.1
2019-05-09T11:13:10.020Z,923.1
2019-05-09T11:14:29.383Z,923
2019-05-09T11:15:14.558Z,923.1
2019-05-09T11:16:13.927Z,923.1
2019-05-09T11:19:13.490Z,923
2019-05-09T11:20:11.353Z,923.1
2019-05-09T11:21:12.481Z,923.1
2019-05-09T11:22:13.607Z,923.1
2019-05-09T11:23:15.038Z,923.1
2019-05-09T11:24:18.642Z,923
2019-05-09T11:25:17.119Z,923.1
2019-05-09T11:26:18.443Z,923.1
2019-05-09T11:27:19.587Z,923.1
2019-05-09T11:28:20.730Z,923.2
2019-05-09T11:29:21.858Z,923.2
2019-05-09T11:30:22.379Z,923.1
2019-05-09T11:31:24.783Z,923
2019-05-09T11:32:27.359Z,923.2
2019-05-09T11:33:27.771Z,923.3
2019-05-09T11:34:27.198Z,923.2
2019-05-09T11:35:28.325Z,923.3
2019-05-09T11:36:29.456Z,923.3
2019-05-09T11:37:30.586Z,923.3
2019-05-09T11:38:49.352Z,923.3
2019-05-09T11:41:08.256Z,923.4
2019-05-09T11:42:29.628Z,922.3
2019-05-09T11:43:30.143Z,923.4
2019-05-09T11:44:32.610Z,923.5
2019-05-09T11:45:33.530Z,923.3
2019-05-09T11:46:34.361Z,923.4
2019-05-09T11:47:51.474Z,923.4
2019-05-09T11:48:37.943Z,923.4
2019-05-09T11:49:38.802Z,923.4
2019-05-09T11:50:38.789Z,923.2
2019-05-09T11:51:38.265Z,923.2
2019-05-09T11:52:39.672Z,923.2
2019-05-09T11:53:40.444Z,923
2019-05-09T11:54:41.574Z,922.9
2019-05-09T11:55:43.378Z,923.1
2019-05-09T11:56:43.608Z,923.1
2019-05-09T11:57:44.736Z,923.2
2019-05-09T11:58:47.978Z,923.1
2019-05-09T11:59:48.059Z,923.1
2019-05-09T12:00:48.371Z,923.1
2019-05-09T12:01:49.474Z,923
2019-05-09T12:02:50.876Z,923
2019-05-09T12:03:52.312Z,921.4
2019-05-09T12:04:52.670Z,922.9
2019-05-09T12:05:54.057Z,922.8
2019-05-09T12:06:57.480Z,923
2019-05-09T12:07:58.101Z,922.7
2019-05-09T12:08:58.748Z,922.8
2019-05-09T12:09:58.849Z,923
2019-05-09T12:10:58.360Z,923
2019-05-09T12:11:59.768Z,922.9
2019-05-09T12:13:03.112Z,923
2019-05-09T12:14:03.644Z,923
2019-05-09T12:15:03.636Z,923
2019-05-09T12:16:03.993Z,922.9
2019-05-09T12:17:08.157Z,922.8
2019-05-09T12:18:16.642Z,922.9
2019-05-09T12:19:07.962Z,922.8
2019-05-09T12:20:18.874Z,922.9
2019-05-09T12:21:10.176Z,922.9
2019-05-09T12:22:14.307Z,922.9
2019-05-09T12:23:13.301Z,922.7
2019-05-09T12:24:12.823Z,921.8
2019-05-09T12:25:13.951Z,922.8
2019-05-09T12:26:17.742Z,922.8
2019-05-09T12:27:18.727Z,922.8
2019-05-09T12:28:18.910Z,922.8
2019-05-09T12:29:19.510Z,922.8
2019-05-09T12:30:19.070Z,922.8
2019-05-09T12:31:23.724Z,922.9
2019-05-09T12:32:20.821Z,922.8
2019-05-09T12:33:21.962Z,922.9
2019-05-09T12:34:22.476Z,922.9
2019-05-09T12:35:23.620Z,922.9
2019-05-09T12:36:24.744Z,922.8
2019-05-09T12:37:27.920Z,922.8
2019-05-09T12:38:27.841Z,922.8
2019-05-09T12:39:28.254Z,922.8
2019-05-09T12:40:29.378Z,922.8
2019-05-09T12:41:31.329Z,922.8
2019-05-09T12:42:34.849Z,922.7
2019-05-09T12:43:33.780Z,922.7
2019-05-09T12:44:34.468Z,922.8
2019-05-09T12:45:34.836Z,922.9
2019-05-09T12:46:39.054Z,922.8
2019-05-09T12:47:39.655Z,921.3
2019-05-09T12:48:38.264Z,922.8
2019-05-09T12:49:39.658Z,922.7
2019-05-09T12:50:41.050Z,922.3
2019-05-09T12:51:43.134Z,922.8
2019-05-09T12:52:44.690Z,922.8
2019-05-09T12:53:44.827Z,922.8
2019-05-09T12:54:45.337Z,922.8
2019-05-09T12:55:47.539Z,922.8
2019-05-09T12:56:48.606Z,922.8
2019-05-09T12:57:49.120Z,922.8
2019-05-09T12:58:53.162Z,922.8
2019-05-09T12:59:58.775Z,922.6
2019-05-09T13:00:58.372Z,922.9
2019-05-09T13:01:54.763Z,922.8
2019-05-09T13:02:53.882Z,922.8
2019-05-09T13:03:55.034Z,922.8
2019-05-09T13:04:56.459Z,922.8
2019-05-09T13:05:57.641Z,922.9
2019-05-09T13:06:59.054Z,922.9
2019-05-09T13:08:00.179Z,922.9
2019-05-09T13:09:01.329Z,922.8
2019-05-09T13:10:03.628Z,922.8
2019-05-09T13:11:08.224Z,922.9
2019-05-09T13:12:04.636Z,922.7
2019-05-09T13:13:08.582Z,922.8
2019-05-09T13:14:09.904Z,922.6
2019-05-09T13:15:08.843Z,922.7
2019-05-09T13:16:10.843Z,922.8
2019-05-09T13:17:10.553Z,922.8